createdAt,value
2018-12-19T00:00:20.454Z,98659.09
2018-12-19T00:04:24.557Z,98655.64
2018-12-19T00:08:28.541Z,98643.52
2018-12-19T00:12:32.710Z,98638.83
2018-12-19T00:16:36.714Z,98632.81
2018-12-19T00:20:40.946Z,98631.16
2018-12-19T00:24:44.937Z,98626.84
2018-12-19T00:28:49.087Z,98632.14
2018-12-19T00:32:53.070Z,98640.36
2018-12-19T00:36:57.233Z,98640.42
2018-12-19T00:41:01.218Z,98633.44
2018-12-19T00:45:05.373Z,98631.62
2018-12-19T00:49:09.367Z,98639.06
2018-12-19T00:53:13.517Z,98636.88
2018-12-19T00:57:17.494Z,98628.33
2018-12-19T01:01:21.658Z,98624.92
2018-12-19T01:05:25.633Z,98631.42
2018-12-19T01:09:29.732Z,98635.36
2018-12-19T01:13:33.705Z,98633.23
2018-12-19T01:17:37.941Z,98629.40
2018-12-19T01:21:41.917Z,98622.52
2018-12-19T01:25:47.017Z,98614.80
2018-12-19T01:29:50.988Z,98612.27
2018-12-19T01:33:55.153Z,98611.05
2018-12-19T01:37:59.140Z,98610.27
2018-12-19T01:42:03.289Z,98604.77
2018-12-19T01:46:07.269Z,98602.32
2018-12-19T01:50:11.438Z,98602.02
2018-12-19T01:54:15.409Z,98596.91
2018-12-19T01:58:19.517Z,98599.14
2018-12-19T02:02:23.497Z,98594.84
2018-12-19T02:06:27.623Z,98602.75
2018-12-19T02:10:31.602Z,98600.69
2018-12-19T02:14:35.761Z,98606.81
2018-12-19T02:18:39.792Z,98602.52
2018-12-19T02:22:44.001Z,98601.24
2018-12-19T02:26:48.001Z,98602.17
2018-12-19T02:30:52.141Z,98594.01
2018-12-19T02:34:56.134Z,98593.22
2018-12-19T02:39:00.293Z,98586.32
2018-12-19T02:43:04.354Z,98575.99
2018-12-19T02:47:08.536Z,98582.95
2018-12-19T02:51:12.515Z,98582.11
2018-12-19T02:55:16.575Z,98580.36
2018-12-19T02:59:20.552Z,98582.05
2018-12-19T03:03:24.721Z,98586.00
2018-12-19T03:07:28.698Z,98579.52
2018-12-19T03:11:32.896Z,98569.58
2018-12-19T03:15:36.853Z,98566.16
2018-12-19T03:19:41.101Z,98562.34
2018-12-19T03:23:45.079Z,98556.77
2018-12-19T03:27:49.246Z,98555.58
2018-12-19T03:31:53.231Z,98549.66
2018-12-19T03:35:57.390Z,98555.34
2018-12-19T03:40:01.374Z,98566.63
2018-12-19T03:44:05.442Z,98564.47
2018-12-19T03:48:11.418Z,98567.92
2018-12-19T03:52:15.509Z,98564.90
2018-12-19T03:56:19.504Z,98565.80
2018-12-19T04:00:23.662Z,98565.38
2018-12-19T04:04:27.637Z,98558.93
2018-12-19T04:08:31.803Z,98552.91
2018-12-19T04:12:35.788Z,98554.73
2018-12-19T04:16:39.937Z,98554.37
2018-12-19T04:20:43.977Z,98547.88
2018-12-19T04:24:48.092Z,98548.78
2018-12-19T04:28:52.190Z,98543.59
2018-12-19T04:32:56.533Z,98538.85
2018-12-19T04:37:00.524Z,98535.02
2018-12-19T04:41:04.675Z,98535.50
2018-12-19T04:45:08.663Z,98525.61
2018-12-19T04:49:12.837Z,98529.13
2018-12-19T04:53:16.818Z,98522.70
2018-12-19T04:57:20.957Z,98525.34
2018-12-19T05:01:24.954Z,98524.13
2018-12-19T05:05:29.101Z,98518.95
2018-12-19T05:09:33.093Z,98523.74
2018-12-19T05:13:37.252Z,98528.52
2018-12-19T05:17:41.238Z,98523.41
2018-12-19T05:21:45.506Z,98513.12
2018-12-19T05:25:49.482Z,98520.05
2018-12-19T05:29:53.633Z,98527.44
2018-12-19T05:33:57.622Z,98522.26
2018-12-19T05:38:01.774Z,98516.68
2018-12-19T05:42:05.770Z,98514.09
2018-12-19T05:46:09.914Z,98511.95
2018-12-19T05:50:15.393Z,98515.44
2018-12-19T05:54:19.494Z,98514.19
2018-12-19T05:58:23.490Z,98524.13
2018-12-19T06:02:27.639Z,98519.41
2018-12-19T06:06:31.627Z,98511.20
2018-12-19T06:10:35.783Z,98512.97
2018-12-19T06:14:39.762Z,98510.41
2018-12-19T06:18:43.921Z,98497.51
2018-12-19T06:22:47.949Z,98503.65
2018-12-19T06:26:52.042Z,98511.01
2018-12-19T06:30:56.030Z,98505.00
2018-12-19T06:35:00.106Z,98503.28
2018-12-19T06:39:05.588Z,98502.86
2018-12-19T06:43:09.689Z,98505.03
2018-12-19T06:47:13.666Z,98509.31
2018-12-19T06:51:18.972Z,98506.20
2018-12-19T06:55:23.210Z,98514.73
2018-12-19T06:59:27.290Z,98509.16
2018-12-19T07:03:31.274Z,98508.67
2018-12-19T07:07:35.445Z,98507.57
2018-12-19T07:11:39.430Z,98502.22
2018-12-19T07:15:43.577Z,98506.31
2018-12-19T07:19:47.569Z,98515.73
2018-12-19T07:23:51.827Z,98517.30
2018-12-19T07:27:55.821Z,98520.38
2018-12-19T07:31:59.965Z,98520.42
2018-12-19T07:36:03.951Z,98525.28
2018-12-19T07:40:08.205Z,98536.19
2018-12-19T07:44:12.305Z,98533.55
2018-12-19T07:48:16.466Z,98534.19
2018-12-19T07:52:20.450Z,98542.19
2018-12-19T07:56:25.317Z,98545.15
2018-12-19T08:00:29.296Z,98543.03
2018-12-19T08:04:33.449Z,98546.23
2018-12-19T08:08:37.437Z,98538.71
2018-12-19T08:12:41.597Z,98533.52
2018-12-19T08:16:45.573Z,98529.05
2018-12-19T08:20:49.916Z,98531.85
2018-12-19T08:24:53.913Z,98542.69
2018-12-19T08:28:58.091Z,98534.62
2018-12-19T08:33:02.149Z,98532.77
2018-12-19T08:37:06.233Z,98546.44
2018-12-19T08:41:10.227Z,98561.90
2018-12-19T08:45:15.194Z,98549.66
2018-12-19T08:49:19.161Z,98552.72
2018-12-19T08:53:23.330Z,98554.13
2018-12-19T08:57:27.341Z,98537.67
2018-12-19T09:01:31.527Z,98542.88
2018-12-19T09:05:35.514Z,98536.65
2018-12-19T09:09:39.598Z,98519.47
2018-12-19T09:13:43.586Z,98506.19
2018-12-19T09:17:47.760Z,98493.16
2018-12-19T09:21:51.749Z,98472.98
2018-12-19T09:25:57.437Z,98466.81
2018-12-19T09:30:01.416Z,98478.40
2018-12-19T09:34:05.580Z,98479.94
2018-12-19T09:38:09.561Z,98472.38
2018-12-19T09:42:13.669Z,98457.56
2018-12-19T09:46:17.677Z,98446.33
2018-12-19T09:50:21.762Z,98435.86
2018-12-19T09:54:25.746Z,98428.83
2018-12-19T09:58:29.904Z,98434.47
2018-12-19T10:02:33.881Z,98433.47
2018-12-19T10:06:37.979Z,98429.44
2018-12-19T10:10:41.963Z,98415.17
2018-12-19T10:14:46.077Z,98415.66
2018-12-19T10:18:50.061Z,98409.77
2018-12-19T10:22:55.145Z,98412.62
2018-12-19T10:26:59.277Z,98404.91
2018-12-19T10:31:03.400Z,98401.67
2018-12-19T10:35:09.625Z,98400.02
2018-12-19T10:39:15.119Z,98397.31
2018-12-19T10:43:19.105Z,98397.23
2018-12-19T10:47:23.262Z,98402.19
2018-12-19T10:51:27.249Z,98392.43
2018-12-19T10:55:31.401Z,98390.03
2018-12-19T10:59:35.390Z,98382.49
2018-12-19T11:03:39.507Z,98371.15
2018-12-19T11:07:43.555Z,98368.88
2018-12-19T11:11:47.688Z,98367.53
2018-12-19T11:15:52.050Z,98373.49
2018-12-19T11:19:56.246Z,98373.34
2018-12-19T11:24:00.218Z,98373.18
2018-12-19T11:28:04.578Z,98370.27
2018-12-19T11:32:08.579Z,98360.83
2018-12-19T11:36:12.726Z,98365.42
2018-12-19T11:40:16.734Z,98356.05
2018-12-19T11:44:20.872Z,98363.78
2018-12-19T11:48:24.853Z,98365.79
2018-12-19T11:52:29.017Z,98352.89
2018-12-19T11:56:33.010Z,98364.33
2018-12-19T12:00:37.155Z,98358.80
2018-12-19T12:04:41.133Z,98350.41
2018-12-19T12:08:45.297Z,98331.41
2018-12-19T12:12:49.340Z,98339.50
2018-12-19T12:16:53.639Z,98342.59
2018-12-19T12:20:57.633Z,98338.05
2018-12-19T12:25:01.787Z,98328.34
2018-12-19T12:29:05.821Z,98318.33
2018-12-19T12:33:09.931Z,98311.45
2018-12-19T12:37:13.910Z,98305.88
2018-12-19T12:41:18.127Z,98309.20
2018-12-19T12:45:22.161Z,98299.88
2018-12-19T12:49:26.260Z,98306.03
2018-12-19T12:53:30.243Z,98304.30
2018-12-19T12:57:34.358Z,98305.02
2018-12-19T13:01:38.353Z,98301.95
2018-12-19T13:05:42.498Z,98298.53
2018-12-19T13:09:46.482Z,98299.61
2018-12-19T13:13:50.650Z,98295.91
2018-12-19T13:17:54.914Z,98295.73
2018-12-19T13:21:59.093Z,98304.07
2018-12-19T13:26:03.069Z,98286.91
2018-12-19T13:30:08.790Z,98292.21
2018-12-19T13:34:12.767Z,98284.09
2018-12-19T13:38:16.855Z,98285.48
2018-12-19T13:42:20.846Z,98287.35
2018-12-19T13:46:24.958Z,98287.53
2018-12-19T13:50:28.930Z,98277.41
2018-12-19T13:54:33.086Z,98277.09
2018-12-19T13:58:37.969Z,98276.05
2018-12-19T14:02:42.053Z,98289.62
2018-12-19T14:06:46.029Z,98279.81
2018-12-19T14:10:51.166Z,98283.43
2018-12-19T14:14:55.149Z,98288.64
2018-12-19T14:18:59.267Z,98293.19
2018-12-19T14:23:03.242Z,98277.52
2018-12-19T14:27:07.505Z,98286.64
2018-12-19T14:31:11.533Z,98274.22
2018-12-19T14:35:15.648Z,98265.28
2018-12-19T14:39:19.640Z,98267.18
2018-12-19T14:43:23.789Z,98268.61
2018-12-19T14:47:27.785Z,98270.83
2018-12-19T14:51:31.954Z,98273.56
2018-12-19T14:55:35.995Z,98275.70
2018-12-19T14:59:40.174Z,98261.45
2018-12-19T15:03:44.159Z,98268.57
2018-12-19T15:07:48.317Z,98267.89
2018-12-19T15:11:52.298Z,98273.59
2018-12-19T15:16:03.639Z,98267.55
2018-12-19T15:20:07.625Z,98264.95
2018-12-19T15:24:11.777Z,98264.41
2018-12-19T15:28:15.774Z,98260.72
2018-12-19T15:32:20.235Z,98253.72
2018-12-19T15:36:24.198Z,98259.84
2018-12-19T15:40:28.377Z,98244.28
2018-12-19T15:44:32.345Z,98243.48
2018-12-19T15:48:36.510Z,98239.42
2018-12-19T15:52:40.494Z,98235.89
2018-12-19T15:56:44.753Z,98241.90
2018-12-19T16:00:48.741Z,98238.88
2018-12-19T16:04:52.900Z,98226.09
2018-12-19T16:08:56.890Z,98226.33
2018-12-19T16:13:01.038Z,98221.26
2018-12-19T16:17:05.050Z,98218.63
2018-12-19T16:21:09.177Z,98217.32
2018-12-19T16:25:13.162Z,98214.34
2018-12-19T16:29:17.321Z,98213.62
2018-12-19T16:33:21.366Z,98203.57
2018-12-19T16:37:25.470Z,98196.81
2018-12-19T16:41:29.454Z,98190.94
2018-12-19T16:45:33.611Z,98182.81
2018-12-19T16:49:37.622Z,98176.35
2018-12-19T16:53:41.761Z,98186.41
2018-12-19T16:57:45.760Z,98184.23
2018-12-19T17:01:49.893Z,98174.84
2018-12-19T17:05:53.878Z,98167.62
2018-12-19T17:09:58.033Z,98166.82
2018-12-19T17:14:02.126Z,98161.28
2018-12-19T17:18:06.277Z,98159.03
2018-12-19T17:22:10.331Z,98160.02
2018-12-19T17:26:14.739Z,98158.77
2018-12-19T17:30:18.718Z,98157.31
2018-12-19T17:34:22.973Z,98159.14
2018-12-19T17:38:26.963Z,98160.09
2018-12-19T17:42:31.146Z,98162.77
2018-12-19T17:46:35.133Z,98160.66
2018-12-19T17:50:39.257Z,98149.86
2018-12-19T17:54:43.246Z,98149.51
2018-12-19T17:58:47.610Z,98143.33
2018-12-19T18:02:51.593Z,98145.55
2018-12-19T18:06:55.746Z,98143.37
2018-12-19T18:10:59.733Z,98133.87
2018-12-19T18:15:03.889Z,98136.39
2018-12-19T18:19:07.882Z,98130.39
2018-12-19T18:23:12.034Z,98122.08
2018-12-19T18:27:16.032Z,98129.91
2018-12-19T18:31:20.177Z,98130.78
2018-12-19T18:35:24.222Z,98131.73
2018-12-19T18:39:28.331Z,98126.69
2018-12-19T18:43:32.317Z,98114.17
2018-12-19T18:47:36.566Z,98107.64
2018-12-19T18:51:40.559Z,98112.38
2018-12-19T18:55:44.813Z,98098.95
2018-12-19T18:59:48.809Z,98098.91
2018-12-19T19:03:52.965Z,98099.45
2018-12-19T19:07:56.963Z,98118.91
2018-12-19T19:12:01.094Z,98114.83
2018-12-19T19:16:05.165Z,98113.72
2018-12-19T19:20:09.338Z,98117.42
2018-12-19T19:24:13.333Z,98112.57
2018-12-19T19:28:17.494Z,98109.02
2018-12-19T19:32:22.291Z,98114.70
2018-12-19T19:36:26.548Z,98108.14
2018-12-19T19:40:30.538Z,98108.06
2018-12-19T19:44:34.633Z,98106.91
2018-12-19T19:48:38.617Z,98103.48
2018-12-19T19:52:42.690Z,98104.94
2018-12-19T19:56:46.696Z,98110.17
2018-12-19T20:00:50.774Z,98105.52
2018-12-19T20:04:54.755Z,98101.70
2018-12-19T20:08:58.915Z,98102.92
2018-12-19T20:13:02.893Z,98099.45
2018-12-19T20:17:07.053Z,98093.88
2018-12-19T20:21:11.038Z,98086.63
2018-12-19T20:25:15.299Z,98091.12
2018-12-19T20:29:19.327Z,98086.39
2018-12-19T20:33:23.402Z,98094.67
2018-12-19T20:37:27.478Z,98098.22
2018-12-19T20:41:31.574Z,98097.27
2018-12-19T20:45:35.570Z,98088.19
2018-12-19T20:49:39.725Z,98083.88
2018-12-19T20:53:43.725Z,98079.22
2018-12-19T20:57:47.803Z,98077.30
2018-12-19T21:01:51.789Z,98080.43
2018-12-19T21:05:55.910Z,98076.54
2018-12-19T21:09:59.901Z,98080.33
2018-12-19T21:14:04.049Z,98074.56
2018-12-19T21:18:13.542Z,98071.90
2018-12-19T21:22:17.721Z,98066.71
2018-12-19T21:26:21.723Z,98058.92
2018-12-19T21:30:25.866Z,98062.77
2018-12-19T21:34:29.862Z,98059.84
2018-12-19T21:38:34.029Z,98056.75
2018-12-19T21:42:38.501Z,98056.41
2018-12-19T21:46:42.665Z,98054.27
2018-12-19T21:50:46.773Z,98053.05
2018-12-19T21:54:50.905Z,98045.34
2018-12-19T21:58:54.898Z,98050.99
2018-12-19T22:03:01.075Z,98042.86
2018-12-19T22:07:05.061Z,98049.69
2018-12-19T22:11:09.238Z,98047.17
2018-12-19T22:15:14.255Z,98044.62
2018-12-19T22:19:18.610Z,98044.20
2018-12-19T22:23:22.663Z,98046.37
2018-12-19T22:27:26.861Z,98046.26
2018-12-19T22:31:30.863Z,98053.01
2018-12-19T22:35:35.105Z,98040.03
2018-12-19T22:39:39.092Z,98041.67
2018-12-19T22:43:43.248Z,98043.36
2018-12-19T22:47:47.325Z,98027.80
2018-12-19T22:51:51.500Z,98025.20
2018-12-19T22:55:55.572Z,98031.15
2018-12-19T22:59:59.947Z,98028.14
2018-12-19T23:04:07.226Z,98029.34
2018-12-19T23:08:11.335Z,98037.06
2018-12-19T23:12:15.485Z,98027.47
2018-12-19T23:16:19.606Z,98021.91
2018-12-19T23:20:23.653Z,98014.13
2018-12-19T23:24:27.926Z,98003.62
2018-12-19T23:28:31.958Z,98007.94
2018-12-19T23:32:36.871Z,98009.61
2018-12-19T23:36:40.990Z,97999.69
2018-12-19T23:40:45.261Z,97997.47
2018-12-19T23:44:49.245Z,97994.83
2018-12-19T23:48:53.516Z,97992.70
2018-12-19T23:52:57.590Z,97991.86
2018-12-19T23:57:01.746Z,97994.41
